createdAt,value
2018-01-27T00:00:51.863Z,5.55
2018-01-27T00:01:51.799Z,5.68
2018-01-27T00:02:51.737Z,5.66
2018-01-27T00:03:51.666Z,5.63
2018-01-27T00:04:51.600Z,5.64
2018-01-27T00:05:51.534Z,5.68
2018-01-27T00:06:51.472Z,5.60
2018-01-27T00:07:51.404Z,5.59
2018-01-27T00:08:51.339Z,5.66
2018-01-27T00:09:51.275Z,5.71
2018-01-27T00:10:51.209Z,5.52
2018-01-27T00:11:51.143Z,5.64
2018-01-27T00:12:51.078Z,5.66
2018-01-27T00:13:51.014Z,5.78
2018-01-27T00:14:50.946Z,5.70
2018-01-27T00:15:50.882Z,5.81
2018-01-27T00:16:50.816Z,5.83
2018-01-27T00:17:50.751Z,5.82
2018-01-27T00:18:50.685Z,5.85
2018-01-27T00:19:50.624Z,5.82
2018-01-27T00:20:50.555Z,5.78
2018-01-27T00:21:50.488Z,5.75
2018-01-27T00:22:50.425Z,5.75
2018-01-27T00:23:50.357Z,5.74
2018-01-27T00:24:50.293Z,5.89
2018-01-27T00:25:50.227Z,5.93
2018-01-27T00:26:50.168Z,5.89
2018-01-27T00:27:50.096Z,5.89
2018-01-27T00:28:50.031Z,5.89
2018-01-27T00:29:49.967Z,5.91
2018-01-27T00:30:49.901Z,5.96
2018-01-27T00:31:49.834Z,5.95
2018-01-27T00:32:49.769Z,6.03
2018-01-27T00:33:49.704Z,6.04
2018-01-27T00:34:49.639Z,6.13
2018-01-27T00:35:49.573Z,6.11
2018-01-27T00:36:49.510Z,6.21
2018-01-27T00:37:49.444Z,6.13
2018-01-27T00:38:49.378Z,6.16
2018-01-27T00:39:49.314Z,6.30
2018-01-27T00:40:49.246Z,6.29
2018-01-27T00:41:49.181Z,6.33
2018-01-27T00:42:49.117Z,6.36
2018-01-27T00:43:49.049Z,6.36
2018-01-27T00:44:48.985Z,6.30
2018-01-27T00:45:48.919Z,6.32
2018-01-27T00:46:48.855Z,6.22
2018-01-27T00:47:48.789Z,6.30
2018-01-27T00:48:48.723Z,6.28
2018-01-27T00:49:48.675Z,6.25
2018-01-27T00:50:48.593Z,6.29
2018-01-27T00:51:48.527Z,6.22
2018-01-27T00:52:48.462Z,6.26
2018-01-27T00:53:48.397Z,6.26
2018-01-27T00:54:48.331Z,6.28
2018-01-27T00:55:48.266Z,6.26
2018-01-27T00:56:48.201Z,6.18
2018-01-27T00:57:48.136Z,6.14
2018-01-27T00:58:48.071Z,6.18
2018-01-27T00:59:48.004Z,6.06
2018-01-27T01:00:47.940Z,6.06
2018-01-27T01:01:47.876Z,6.03
2018-01-27T01:02:47.809Z,6.00
2018-01-27T01:03:47.743Z,6.00
2018-01-27T01:04:47.678Z,5.95
2018-01-27T01:05:47.613Z,6.01
2018-01-27T01:06:47.550Z,5.92
2018-01-27T01:07:47.482Z,5.74
2018-01-27T01:08:47.416Z,5.78
2018-01-27T01:09:47.352Z,5.78
2018-01-27T01:10:47.287Z,5.74
2018-01-27T01:11:47.220Z,5.67
2018-01-27T01:12:47.155Z,5.67
2018-01-27T01:13:47.090Z,5.60
2018-01-27T01:14:47.025Z,5.55
2018-01-27T01:15:46.959Z,5.59
2018-01-27T01:16:46.893Z,5.60
2018-01-27T01:17:46.828Z,5.73
2018-01-27T01:18:46.763Z,5.78
2018-01-27T01:19:46.697Z,5.82
2018-01-27T01:20:46.635Z,5.77
2018-01-27T01:21:46.567Z,5.77
2018-01-27T01:22:46.501Z,5.81
2018-01-27T01:23:46.436Z,5.73
2018-01-27T01:24:46.369Z,5.74
2018-01-27T01:25:46.305Z,5.67
2018-01-27T01:26:46.239Z,5.77
2018-01-27T01:27:46.173Z,5.57
2018-01-27T01:28:46.110Z,5.56
2018-01-27T01:29:46.043Z,5.53
2018-01-27T01:30:45.978Z,5.46
2018-01-27T01:31:45.910Z,5.38
2018-01-27T01:32:45.845Z,5.41
2018-01-27T01:33:45.779Z,5.41
2018-01-27T01:34:45.716Z,5.28
2018-01-27T01:35:45.648Z,5.27
2018-01-27T01:36:45.583Z,5.35
2018-01-27T01:37:45.517Z,5.30
2018-01-27T01:38:45.451Z,5.22
2018-01-27T01:39:45.385Z,5.30
2018-01-27T01:40:45.320Z,5.22
2018-01-27T01:41:45.254Z,5.28
2018-01-27T01:42:45.190Z,5.19
2018-01-27T01:43:45.124Z,5.09
2018-01-27T01:44:45.057Z,5.12
2018-01-27T01:45:44.991Z,5.05
2018-01-27T01:46:44.926Z,5.07
2018-01-27T01:47:44.859Z,5.10
2018-01-27T01:48:44.794Z,5.10
2018-01-27T01:49:44.731Z,5.07
2018-01-27T01:50:44.662Z,5.01
2018-01-27T01:51:44.596Z,5.09
2018-01-27T01:52:44.530Z,5.14
2018-01-27T01:53:44.465Z,5.22
2018-01-27T01:54:44.402Z,5.31
2018-01-27T01:55:44.334Z,5.34
2018-01-27T01:56:44.268Z,5.35
2018-01-27T01:57:44.202Z,5.37
2018-01-27T01:58:44.139Z,5.46
2018-01-27T01:59:44.070Z,5.45
2018-01-27T02:00:44.005Z,5.50
2018-01-27T02:01:43.939Z,5.55
2018-01-27T02:02:43.873Z,5.59
2018-01-27T02:03:43.810Z,5.68
2018-01-27T02:04:43.741Z,5.68
2018-01-27T02:05:43.677Z,5.71
2018-01-27T02:06:43.615Z,5.68
2018-01-27T02:07:43.544Z,5.71
2018-01-27T02:08:43.483Z,5.68
2018-01-27T02:09:43.414Z,5.56
2018-01-27T02:10:43.350Z,5.66
2018-01-27T02:11:43.282Z,5.63
2018-01-27T02:12:43.221Z,5.71
2018-01-27T02:13:43.151Z,5.67
2018-01-27T02:14:43.086Z,5.56
2018-01-27T02:15:43.020Z,5.64
2018-01-27T02:16:42.955Z,5.66
2018-01-27T02:17:42.890Z,5.57
2018-01-27T02:18:42.824Z,5.59
2018-01-27T02:19:42.758Z,5.66
2018-01-27T02:20:42.692Z,5.57
2018-01-27T02:21:42.627Z,5.63
2018-01-27T02:22:42.562Z,5.71
2018-01-27T02:23:42.496Z,5.78
2018-01-27T02:24:42.429Z,5.78
2018-01-27T02:25:42.365Z,5.81
2018-01-27T02:26:42.298Z,5.85
2018-01-27T02:27:42.233Z,5.98
2018-01-27T02:28:42.167Z,6.00
2018-01-27T02:29:42.102Z,6.09
2018-01-27T02:30:42.037Z,6.13
2018-01-27T02:31:41.970Z,6.13
2018-01-27T02:32:41.905Z,6.14
2018-01-27T02:33:41.839Z,6.14
2018-01-27T02:34:41.775Z,6.13
2018-01-27T02:35:41.708Z,6.14
2018-01-27T02:36:41.642Z,6.13
2018-01-27T02:37:41.578Z,6.16
2018-01-27T02:38:41.513Z,6.14
2018-01-27T02:39:41.446Z,6.07
2018-01-27T02:40:41.381Z,6.11
2018-01-27T02:41:41.315Z,6.13
2018-01-27T02:42:41.249Z,6.10
2018-01-27T02:43:41.182Z,6.14
2018-01-27T02:44:41.118Z,6.10
2018-01-27T02:45:41.052Z,6.14
2018-01-27T02:46:40.987Z,6.16
2018-01-27T02:47:40.921Z,6.10
2018-01-27T02:48:40.856Z,6.13
2018-01-27T02:49:40.789Z,6.16
2018-01-27T02:50:40.724Z,6.14
2018-01-27T02:51:40.660Z,6.18
2018-01-27T02:52:40.592Z,6.10
2018-01-27T02:53:40.526Z,6.22
2018-01-27T02:54:40.461Z,6.14
2018-01-27T02:55:40.396Z,6.21
2018-01-27T02:56:40.329Z,6.14
2018-01-27T02:57:40.263Z,6.18
2018-01-27T02:58:40.199Z,6.18
2018-01-27T02:59:40.131Z,6.11
2018-01-27T03:00:40.068Z,6.14
2018-01-27T03:01:40.006Z,6.14
2018-01-27T03:02:39.935Z,6.10
2018-01-27T03:03:39.869Z,6.13
2018-01-27T03:04:39.803Z,6.14
2018-01-27T03:05:39.738Z,6.06
2018-01-27T03:06:39.672Z,6.04
2018-01-27T03:07:39.606Z,6.06
2018-01-27T03:08:39.540Z,6.07
2018-01-27T03:09:39.477Z,6.00
2018-01-27T03:10:39.408Z,6.04
2018-01-27T03:11:39.342Z,6.01
2018-01-27T03:12:39.277Z,5.89
2018-01-27T03:13:39.211Z,5.86
2018-01-27T03:14:39.145Z,5.78
2018-01-27T03:15:39.079Z,5.82
2018-01-27T03:16:39.014Z,5.74
2018-01-27T03:17:38.949Z,5.73
2018-01-27T03:18:38.882Z,5.63
2018-01-27T03:19:38.815Z,5.73
2018-01-27T03:20:38.749Z,5.70
2018-01-27T03:21:38.684Z,5.60
2018-01-27T03:22:38.620Z,5.59
2018-01-27T03:23:38.552Z,5.55
2018-01-27T03:24:38.486Z,5.53
2018-01-27T03:25:38.420Z,5.52
2018-01-27T03:26:38.356Z,5.48
2018-01-27T03:27:38.287Z,5.40
2018-01-27T03:28:38.223Z,5.40
2018-01-27T03:29:38.156Z,5.31
2018-01-27T03:30:38.090Z,5.37
2018-01-27T03:31:38.024Z,5.37
2018-01-27T03:32:37.958Z,5.35
2018-01-27T03:33:37.892Z,5.28
2018-01-27T03:34:37.826Z,5.31
2018-01-27T03:35:37.759Z,5.27
2018-01-27T03:36:37.693Z,5.25
2018-01-27T03:37:37.628Z,5.20
2018-01-27T03:38:37.590Z,5.17
2018-01-27T03:39:37.495Z,5.17
2018-01-27T03:40:37.428Z,5.20
2018-01-27T03:41:37.362Z,5.13
2018-01-27T03:42:37.296Z,5.12
2018-01-27T03:43:37.231Z,5.22
2018-01-27T03:44:37.163Z,5.12
2018-01-27T03:45:37.098Z,5.14
2018-01-27T03:46:37.032Z,5.13
2018-01-27T03:47:36.964Z,5.09
2018-01-27T03:48:36.898Z,5.10
2018-01-27T03:49:36.833Z,5.05
2018-01-27T03:50:36.765Z,5.12
2018-01-27T03:51:36.698Z,5.13
2018-01-27T03:52:36.633Z,5.10
2018-01-27T03:53:36.567Z,5.09
2018-01-27T03:54:36.500Z,5.07
2018-01-27T03:55:36.433Z,5.13
2018-01-27T03:56:36.367Z,5.12
2018-01-27T03:57:36.300Z,5.10
2018-01-27T03:58:36.235Z,5.07
2018-01-27T03:59:36.167Z,5.05
2018-01-27T04:00:36.101Z,4.98
2018-01-27T04:01:36.035Z,4.98
2018-01-27T04:02:35.968Z,5.02
2018-01-27T04:03:35.902Z,5.02
2018-01-27T04:04:35.834Z,4.94
2018-01-27T04:05:35.768Z,4.92
2018-01-27T04:06:35.705Z,4.96
2018-01-27T04:07:35.634Z,4.95
2018-01-27T04:08:35.568Z,4.96
2018-01-27T04:09:35.502Z,4.95
2018-01-27T04:10:35.437Z,4.96
2018-01-27T04:11:35.368Z,4.95
2018-01-27T04:12:35.302Z,4.91
2018-01-27T04:13:35.234Z,4.75
2018-01-27T04:14:35.168Z,4.76
2018-01-27T04:15:35.101Z,4.75
2018-01-27T04:16:35.040Z,4.64
2018-01-27T04:17:34.968Z,4.69
2018-01-27T04:18:34.902Z,4.62
2018-01-27T04:19:34.835Z,4.52
2018-01-27T04:20:34.768Z,4.44
2018-01-27T04:21:34.702Z,4.39
2018-01-27T04:22:34.637Z,4.34
2018-01-27T04:23:34.569Z,4.29
2018-01-27T04:24:34.502Z,4.22
2018-01-27T04:25:34.435Z,4.21
2018-01-27T04:26:34.369Z,4.10
2018-01-27T04:27:34.302Z,4.08
2018-01-27T04:28:34.235Z,3.98
2018-01-27T04:29:34.170Z,3.96
2018-01-27T04:30:34.104Z,3.83
2018-01-27T04:31:34.036Z,3.78
2018-01-27T04:32:33.969Z,3.68
2018-01-27T04:33:33.903Z,3.78
2018-01-27T04:34:33.836Z,3.70
2018-01-27T04:35:33.769Z,3.62
2018-01-27T04:36:33.703Z,3.67
2018-01-27T04:37:33.645Z,3.64
2018-01-27T04:38:33.570Z,3.62
2018-01-27T04:39:33.503Z,3.53
2018-01-27T04:40:33.435Z,3.52
2018-01-27T04:41:33.369Z,3.33
2018-01-27T04:42:33.302Z,3.39
2018-01-27T04:43:33.234Z,3.36
2018-01-27T04:44:33.168Z,3.34
2018-01-27T04:45:33.102Z,3.30
2018-01-27T04:46:33.035Z,3.31
2018-01-27T04:47:32.967Z,3.25
2018-01-27T04:48:32.901Z,3.21
2018-01-27T04:49:32.834Z,3.23
2018-01-27T04:50:32.768Z,3.30
2018-01-27T04:51:32.700Z,3.50
2018-01-27T04:52:32.635Z,3.53
2018-01-27T04:53:32.569Z,3.61
2018-01-27T04:54:32.500Z,3.61
2018-01-27T04:55:32.433Z,3.58
2018-01-27T04:56:32.366Z,3.49
2018-01-27T04:57:32.299Z,3.53
2018-01-27T04:58:32.233Z,3.52
2018-01-27T04:59:32.164Z,3.44
2018-01-27T05:00:32.098Z,3.44
2018-01-27T05:01:32.032Z,3.46
2018-01-27T05:02:31.964Z,3.47
2018-01-27T05:03:31.897Z,3.53
2018-01-27T05:04:31.830Z,3.49
2018-01-27T05:05:31.764Z,3.57
2018-01-27T05:06:31.697Z,3.50
2018-01-27T05:07:31.629Z,3.57
2018-01-27T05:08:31.562Z,3.54
2018-01-27T05:09:31.495Z,3.42
2018-01-27T05:10:31.428Z,3.36
2018-01-27T05:11:31.361Z,3.25
2018-01-27T05:12:31.294Z,3.16
2018-01-27T05:13:31.228Z,3.21
2018-01-27T05:14:31.160Z,3.09
2018-01-27T05:15:31.093Z,3.09
2018-01-27T05:16:31.027Z,3.03
2018-01-27T05:17:30.960Z,3.02
2018-01-27T05:18:30.892Z,2.98
2018-01-27T05:19:30.824Z,3.02
2018-01-27T05:20:30.759Z,2.88
2018-01-27T05:21:30.691Z,2.92
2018-01-27T05:22:30.627Z,2.92
2018-01-27T05:23:30.556Z,2.85
2018-01-27T05:24:30.490Z,2.76
2018-01-27T05:25:30.422Z,2.82
2018-01-27T05:26:30.358Z,2.76
2018-01-27T05:27:30.287Z,2.85
2018-01-27T05:28:30.220Z,2.81
2018-01-27T05:29:30.153Z,2.77
2018-01-27T05:30:30.086Z,2.71
2018-01-27T05:31:30.018Z,2.71
2018-01-27T05:32:29.953Z,2.63
2018-01-27T05:33:29.884Z,2.64
2018-01-27T05:34:29.817Z,2.58
2018-01-27T05:35:29.753Z,2.55
2018-01-27T05:36:29.681Z,2.58
2018-01-27T05:37:29.615Z,2.51
2018-01-27T05:38:29.547Z,2.55
2018-01-27T05:39:29.479Z,2.49
2018-01-27T05:40:29.412Z,2.46
2018-01-27T05:41:29.344Z,2.48
2018-01-27T05:42:29.278Z,2.51
2018-01-27T05:43:29.210Z,2.48
2018-01-27T05:44:29.141Z,2.45
2018-01-27T05:45:29.077Z,2.53
2018-01-27T05:46:29.008Z,2.61
2018-01-27T05:47:28.940Z,2.52
2018-01-27T05:48:28.873Z,2.53
2018-01-27T05:49:28.805Z,2.45
2018-01-27T05:50:28.739Z,2.46
2018-01-27T05:51:28.674Z,2.38
2018-01-27T05:52:28.602Z,2.34
2018-01-27T05:53:28.541Z,2.35
2018-01-27T05:54:28.467Z,2.28
2018-01-27T05:55:28.401Z,2.40
2018-01-27T05:56:28.333Z,2.26
2018-01-27T05:57:28.265Z,2.15
2018-01-27T05:58:28.197Z,2.15
2018-01-27T05:59:28.129Z,2.08
2018-01-27T06:00:28.065Z,2.01
2018-01-27T06:01:27.995Z,1.89
2018-01-27T06:02:27.938Z,1.87
2018-01-27T06:03:27.859Z,1.82
2018-01-27T06:04:27.792Z,1.89
2018-01-27T06:05:27.724Z,1.80
2018-01-27T06:06:27.658Z,1.75
2018-01-27T06:07:27.590Z,1.71
2018-01-27T06:08:27.521Z,1.65
2018-01-27T06:09:27.459Z,1.64
2018-01-27T06:10:27.386Z,1.55
2018-01-27T06:11:27.322Z,1.58
2018-01-27T06:12:27.251Z,1.61
2018-01-27T06:13:27.182Z,1.62
2018-01-27T06:14:27.115Z,1.64
2018-01-27T06:15:27.046Z,1.61
2018-01-27T06:16:27.007Z,1.61
2018-01-27T06:17:26.911Z,1.60
2018-01-27T06:18:26.843Z,1.62
2018-01-27T06:19:26.794Z,1.62
2018-01-27T06:20:26.722Z,1.58
2018-01-27T06:21:26.639Z,1.64
2018-01-27T06:22:26.601Z,1.60
2018-01-27T06:23:26.503Z,1.57
2018-01-27T06:24:26.436Z,1.58
2018-01-27T06:25:26.368Z,1.54
2018-01-27T06:26:26.323Z,1.51
2018-01-27T06:27:26.232Z,1.57
2018-01-27T06:28:26.189Z,1.43
2018-01-27T06:29:26.121Z,1.43
2018-01-27T06:30:26.028Z,1.39
2018-01-27T06:31:25.958Z,1.46
2018-01-27T06:32:25.892Z,1.40
2018-01-27T06:33:25.831Z,1.34
2018-01-27T06:34:25.759Z,1.32
2018-01-27T06:35:25.686Z,1.24
2018-01-27T06:36:25.619Z,1.26
2018-01-27T06:37:25.551Z,1.19
2018-01-27T06:38:25.502Z,1.19
2018-01-27T06:39:25.413Z,1.22
2018-01-27T06:40:25.348Z,1.15
2018-01-27T06:41:25.279Z,1.19
2018-01-27T06:42:25.213Z,1.12
2018-01-27T06:43:25.147Z,1.18
2018-01-27T06:44:25.074Z,1.03
2018-01-27T06:45:25.006Z,1.07
2018-01-27T06:46:24.938Z,1.08
2018-01-27T06:47:24.869Z,1.12
2018-01-27T06:48:24.801Z,1.12
2018-01-27T06:49:24.734Z,1.12
2018-01-27T06:50:24.665Z,1.08
2018-01-27T06:51:24.596Z,1.15
2018-01-27T06:52:24.561Z,1.21
2018-01-27T06:53:24.460Z,1.19
2018-01-27T06:54:24.392Z,1.25
2018-01-27T06:55:24.322Z,1.22
2018-01-27T06:56:24.257Z,1.24
2018-01-27T06:57:24.187Z,1.26
2018-01-27T06:58:24.121Z,1.22
2018-01-27T06:59:24.050Z,1.12
2018-01-27T07:00:23.982Z,1.03
2018-01-27T07:01:23.914Z,1.16
2018-01-27T07:02:23.845Z,1.03
2018-01-27T07:03:23.777Z,1.00
2018-01-27T07:04:23.708Z,0.97
2018-01-27T07:05:23.641Z,1.10
2018-01-27T07:06:23.573Z,1.03
2018-01-27T07:07:23.503Z,0.97
2018-01-27T07:08:23.435Z,1.03
2018-01-27T07:09:23.369Z,1.04
2018-01-27T07:10:23.302Z,0.97
2018-01-27T07:11:23.230Z,1.00
2018-01-27T07:12:23.161Z,1.06
2018-01-27T07:13:23.093Z,0.96
2018-01-27T07:14:23.025Z,1.00
2018-01-27T07:15:22.956Z,1.03
2018-01-27T07:16:22.888Z,0.97
2018-01-27T07:17:22.818Z,1.06
2018-01-27T07:18:22.752Z,1.03
2018-01-27T07:19:22.683Z,1.01
2018-01-27T07:20:22.935Z,0.98
2018-01-27T07:21:22.547Z,1.03
2018-01-27T07:22:22.478Z,1.03
2018-01-27T07:23:22.408Z,1.08
2018-01-27T07:24:22.341Z,1.06
2018-01-27T07:25:22.319Z,1.00
2018-01-27T07:26:22.205Z,1.03
2018-01-27T07:27:22.136Z,0.97
2018-01-27T07:28:22.069Z,1.15
2018-01-27T07:29:21.999Z,1.26
2018-01-27T07:30:21.931Z,1.37
2018-01-27T07:31:21.865Z,1.54
2018-01-27T07:32:21.793Z,1.68
2018-01-27T07:33:21.728Z,1.71
2018-01-27T07:34:21.656Z,1.87
2018-01-27T07:35:21.589Z,2.01
2018-01-27T07:36:21.519Z,1.87
2018-01-27T07:37:21.452Z,1.97
2018-01-27T07:38:21.383Z,1.98
2018-01-27T07:39:21.315Z,1.89
2018-01-27T07:40:21.246Z,2.01
2018-01-27T07:41:21.177Z,2.01
2018-01-27T07:42:21.111Z,1.87
2018-01-27T07:43:21.045Z,1.93
2018-01-27T07:44:20.972Z,1.91
2018-01-27T07:45:20.904Z,1.97
2018-01-27T07:46:20.837Z,1.94
2018-01-27T07:47:20.766Z,1.94
2018-01-27T07:48:20.698Z,1.82
2018-01-27T07:49:20.632Z,1.87
2018-01-27T07:50:20.564Z,2.02
2018-01-27T07:51:20.493Z,1.98
2018-01-27T07:52:20.426Z,1.99
2018-01-27T07:53:20.359Z,1.89
2018-01-27T07:54:20.291Z,1.99
2018-01-27T07:55:20.222Z,2.09
2018-01-27T07:56:20.154Z,2.15
2018-01-27T07:57:20.090Z,2.12
2018-01-27T07:58:20.022Z,2.22
2018-01-27T07:59:19.950Z,2.19
2018-01-27T08:00:19.882Z,2.23
2018-01-27T08:01:19.814Z,2.40
2018-01-27T08:02:19.748Z,2.37
2018-01-27T08:03:19.678Z,2.48
2018-01-27T08:04:19.608Z,2.44
2018-01-27T08:05:19.546Z,2.41
2018-01-27T08:06:19.497Z,2.41
2018-01-27T08:07:19.406Z,2.44
2018-01-27T08:08:19.346Z,2.55
2018-01-27T08:09:19.270Z,2.53
2018-01-27T08:10:19.205Z,2.66
2018-01-27T08:11:19.134Z,2.64
2018-01-27T08:12:19.069Z,2.73
2018-01-27T08:13:18.999Z,2.74
2018-01-27T08:14:18.933Z,2.79
2018-01-27T08:15:18.864Z,2.91
2018-01-27T08:16:18.797Z,2.95
2018-01-27T08:17:18.729Z,3.05
2018-01-27T08:18:18.663Z,3.02
2018-01-27T08:19:18.594Z,3.13
2018-01-27T08:20:18.527Z,3.20
2018-01-27T08:21:18.460Z,3.16
2018-01-27T08:22:18.392Z,3.27
2018-01-27T08:23:18.324Z,3.31
2018-01-27T08:24:18.257Z,3.47
2018-01-27T08:25:18.190Z,3.44
2018-01-27T08:26:18.125Z,3.50
2018-01-27T08:27:18.055Z,3.50
2018-01-27T08:28:17.988Z,3.49
2018-01-27T08:29:17.921Z,3.57
2018-01-27T08:30:17.854Z,3.61
2018-01-27T08:31:17.786Z,3.68
2018-01-27T08:32:17.719Z,3.76
2018-01-27T08:33:17.653Z,3.78
2018-01-27T08:34:17.586Z,3.79
2018-01-27T08:35:17.518Z,3.83
2018-01-27T08:36:17.452Z,3.92
2018-01-27T08:37:17.386Z,4.00
2018-01-27T08:38:17.318Z,4.01
2018-01-27T08:39:17.803Z,4.04
2018-01-27T08:40:17.184Z,4.15
2018-01-27T08:41:17.117Z,4.24
2018-01-27T08:42:17.051Z,4.29
2018-01-27T08:43:16.983Z,4.39
2018-01-27T08:44:16.918Z,4.39
2018-01-27T08:45:16.850Z,4.46
2018-01-27T08:46:16.783Z,4.51
2018-01-27T08:47:16.717Z,4.57
2018-01-27T08:48:16.651Z,4.65
2018-01-27T08:49:16.583Z,4.73
2018-01-27T08:50:16.518Z,4.77
2018-01-27T08:51:16.451Z,4.96
2018-01-27T08:52:16.384Z,4.96
2018-01-27T08:53:16.318Z,5.07
2018-01-27T08:54:16.252Z,5.05
2018-01-27T08:55:16.185Z,5.16
2018-01-27T08:56:16.120Z,5.13
2018-01-27T08:57:16.053Z,5.22
2018-01-27T08:58:15.987Z,5.22
2018-01-27T08:59:15.920Z,5.25
2018-01-27T09:00:15.854Z,5.30
2018-01-27T09:01:15.788Z,5.31
2018-01-27T09:02:15.722Z,5.30
2018-01-27T09:03:15.655Z,5.34
2018-01-27T09:04:15.589Z,5.38
2018-01-27T09:05:15.522Z,5.43
2018-01-27T09:06:15.457Z,5.45
2018-01-27T09:07:15.390Z,5.53
2018-01-27T09:08:15.324Z,5.50
2018-01-27T09:09:15.260Z,5.52
2018-01-27T09:10:15.193Z,5.53
2018-01-27T09:11:15.126Z,5.49
2018-01-27T09:12:15.060Z,5.52
2018-01-27T09:13:14.995Z,5.53
2018-01-27T09:14:14.936Z,5.63
2018-01-27T09:15:14.864Z,5.66
2018-01-27T09:16:14.796Z,5.71
2018-01-27T09:17:14.731Z,5.67
2018-01-27T09:18:14.666Z,5.63
2018-01-27T09:19:14.599Z,5.70
2018-01-27T09:20:14.533Z,5.70
2018-01-27T09:21:14.469Z,5.71
2018-01-27T09:22:14.403Z,5.71
2018-01-27T09:23:14.335Z,5.88
2018-01-27T09:24:14.270Z,5.71
2018-01-27T09:25:14.247Z,5.85
2018-01-27T09:26:14.139Z,5.77
2018-01-27T09:27:14.075Z,5.77
2018-01-27T09:28:14.010Z,5.88
2018-01-27T09:29:13.943Z,5.91
2018-01-27T09:30:13.883Z,5.85
2018-01-27T09:31:13.809Z,5.96
2018-01-27T09:32:13.746Z,6.00
2018-01-27T09:33:13.679Z,6.04
2018-01-27T09:34:13.614Z,5.89
2018-01-27T09:35:13.550Z,5.95
2018-01-27T09:36:13.483Z,5.98
2018-01-27T09:37:13.419Z,6.09
2018-01-27T09:38:13.352Z,6.04
2018-01-27T09:39:13.286Z,6.03
2018-01-27T09:40:13.222Z,6.09
2018-01-27T09:41:13.156Z,6.10
2018-01-27T09:42:13.092Z,6.11
2018-01-27T09:43:13.028Z,6.16
2018-01-27T09:44:12.961Z,6.26
2018-01-27T09:45:12.895Z,6.33
2018-01-27T09:46:12.830Z,6.32
2018-01-27T09:47:12.764Z,6.32
2018-01-27T09:48:12.755Z,6.33
2018-01-27T09:49:12.634Z,6.46
2018-01-27T09:50:12.570Z,6.43
2018-01-27T09:51:12.504Z,6.51
2018-01-27T09:52:12.448Z,6.54
2018-01-27T09:53:12.373Z,6.48
2018-01-27T09:54:12.315Z,6.46
2018-01-27T09:55:12.244Z,6.47
2018-01-27T09:56:12.180Z,6.47
2018-01-27T09:57:12.115Z,6.53
2018-01-27T09:58:12.050Z,6.53
2018-01-27T09:59:11.985Z,6.48
2018-01-27T10:00:11.918Z,6.48
2018-01-27T10:01:11.855Z,6.46
2018-01-27T10:02:11.792Z,6.43
2018-01-27T10:03:11.764Z,6.35
2018-01-27T10:04:11.659Z,6.33
2018-01-27T10:05:11.593Z,6.26
2018-01-27T10:06:11.531Z,6.13
2018-01-27T10:07:11.464Z,6.22
2018-01-27T10:08:11.400Z,6.14
2018-01-27T10:09:11.335Z,6.25
2018-01-27T10:10:11.272Z,6.28
2018-01-27T10:11:11.204Z,6.26
2018-01-27T10:12:11.171Z,6.25
2018-01-27T10:13:11.082Z,6.29
2018-01-27T10:14:11.056Z,6.29
2018-01-27T10:15:10.944Z,6.33
2018-01-27T10:16:10.900Z,6.30
2018-01-27T10:17:10.830Z,6.30
2018-01-27T10:18:10.750Z,6.30
2018-01-27T10:19:10.685Z,6.36
2018-01-27T10:20:10.620Z,6.36
2018-01-27T10:21:10.556Z,6.35
2018-01-27T10:22:10.491Z,6.35
2018-01-27T10:23:10.424Z,6.29
2018-01-27T10:24:10.362Z,6.11
2018-01-27T10:25:10.295Z,6.11
2018-01-27T10:26:10.230Z,6.16
2018-01-27T10:27:10.164Z,6.14
2018-01-27T10:28:10.099Z,6.19
2018-01-27T10:29:10.056Z,6.13
2018-01-27T10:30:09.970Z,6.35
2018-01-27T10:31:09.905Z,6.33
2018-01-27T10:32:09.839Z,6.36
2018-01-27T10:33:09.775Z,6.38
2018-01-27T10:34:09.709Z,6.33
2018-01-27T10:35:09.724Z,6.38
2018-01-27T10:36:09.579Z,6.30
2018-01-27T10:37:09.514Z,6.35
2018-01-27T10:38:09.450Z,6.43
2018-01-27T10:39:09.383Z,6.50
2018-01-27T10:40:09.400Z,6.48
2018-01-27T10:41:09.254Z,6.47
2018-01-27T10:42:09.190Z,6.65
2018-01-27T10:43:09.123Z,6.59
2018-01-27T10:44:09.068Z,6.58
2018-01-27T10:45:08.993Z,6.61
2018-01-27T10:46:08.929Z,6.63
2018-01-27T10:47:08.862Z,6.63
2018-01-27T10:48:08.798Z,6.58
2018-01-27T10:49:08.734Z,6.63
2018-01-27T10:50:08.670Z,6.53
2018-01-27T10:51:08.603Z,6.56
2018-01-27T10:52:08.539Z,6.63
2018-01-27T10:53:08.476Z,6.61
2018-01-27T10:54:08.410Z,6.66
2018-01-27T10:55:08.346Z,6.65
2018-01-27T10:56:08.281Z,6.76
2018-01-27T10:57:08.215Z,6.69
2018-01-27T10:58:08.150Z,6.68
2018-01-27T10:59:08.084Z,6.63
2018-01-27T11:00:08.021Z,6.62
2018-01-27T11:01:07.956Z,6.66
2018-01-27T11:02:07.897Z,6.62
2018-01-27T11:03:07.826Z,6.76
2018-01-27T11:04:07.763Z,6.71
2018-01-27T11:05:07.697Z,6.77
2018-01-27T11:06:07.635Z,6.81
2018-01-27T11:07:07.567Z,6.80
2018-01-27T11:08:07.540Z,6.77
2018-01-27T11:09:07.439Z,6.77
2018-01-27T11:10:07.376Z,6.84
2018-01-27T11:11:07.309Z,6.89
2018-01-27T11:12:07.244Z,6.77
2018-01-27T11:13:07.181Z,6.77
2018-01-27T11:14:07.116Z,6.79
2018-01-27T11:15:07.097Z,6.71
2018-01-27T11:16:06.987Z,6.72
2018-01-27T11:17:06.921Z,6.71
2018-01-27T11:18:06.863Z,6.65
2018-01-27T11:19:06.792Z,6.69
2018-01-27T11:20:06.733Z,6.79
2018-01-27T11:21:06.665Z,6.73
2018-01-27T11:22:06.598Z,6.68
2018-01-27T11:23:06.536Z,6.61
2018-01-27T11:24:06.471Z,6.68
2018-01-27T11:25:06.405Z,6.63
2018-01-27T11:26:06.342Z,6.71
2018-01-27T11:27:06.275Z,6.83
2018-01-27T11:28:06.212Z,6.79
2018-01-27T11:29:06.148Z,6.79
2018-01-27T11:30:06.085Z,6.79
2018-01-27T11:31:06.018Z,6.84
2018-01-27T11:32:05.953Z,6.84
2018-01-27T11:33:05.889Z,6.86
2018-01-27T11:34:05.825Z,6.87
2018-01-27T11:35:05.760Z,6.91
2018-01-27T11:36:05.696Z,6.77
2018-01-27T11:37:05.631Z,6.86
2018-01-27T11:38:05.571Z,6.87
2018-01-27T11:39:05.552Z,6.98
2018-01-27T11:40:05.441Z,6.97
2018-01-27T11:41:05.376Z,7.05
2018-01-27T11:42:05.310Z,7.07
2018-01-27T11:43:05.246Z,7.05
2018-01-27T11:44:05.180Z,7.05
2018-01-27T11:45:05.166Z,7.05
2018-01-27T11:46:05.053Z,7.12
2018-01-27T11:47:04.987Z,7.02
2018-01-27T11:48:04.922Z,6.91
2018-01-27T11:49:04.860Z,6.79
2018-01-27T11:50:04.795Z,6.77
2018-01-27T11:51:04.730Z,6.76
2018-01-27T11:52:04.667Z,6.76
2018-01-27T11:53:04.602Z,6.65
2018-01-27T11:54:04.537Z,6.80
2018-01-27T11:55:04.473Z,6.76
2018-01-27T11:56:04.407Z,6.79
2018-01-27T11:57:04.344Z,6.87
2018-01-27T11:58:04.279Z,6.90
2018-01-27T11:59:04.214Z,7.01
2018-01-27T12:00:04.150Z,6.90
2018-01-27T12:01:04.089Z,7.01
2018-01-27T12:02:04.023Z,6.90
2018-01-27T12:03:03.958Z,6.94
2018-01-27T12:04:03.893Z,6.94
2018-01-27T12:05:03.831Z,6.80
2018-01-27T12:06:03.768Z,6.73
2018-01-27T12:07:03.700Z,6.66
2018-01-27T12:08:03.636Z,6.71
2018-01-27T12:09:03.572Z,6.76
2018-01-27T12:10:03.508Z,6.73
2018-01-27T12:11:03.446Z,6.73
2018-01-27T12:12:03.378Z,6.79
2018-01-27T12:13:03.316Z,6.81
2018-01-27T12:14:03.250Z,6.79
2018-01-27T12:15:03.186Z,6.76
2018-01-27T12:16:03.121Z,6.89
2018-01-27T12:17:03.057Z,6.95
2018-01-27T12:18:02.993Z,6.73
2018-01-27T12:19:02.928Z,6.80
2018-01-27T12:20:02.864Z,6.69
2018-01-27T12:21:02.800Z,6.80
2018-01-27T12:22:02.735Z,6.87
2018-01-27T12:23:02.671Z,6.84
2018-01-27T12:24:02.607Z,6.89
2018-01-27T12:25:02.542Z,6.91
2018-01-27T12:26:02.480Z,6.81
2018-01-27T12:27:02.414Z,6.89
2018-01-27T12:28:02.350Z,6.83
2018-01-27T12:29:02.288Z,6.87
2018-01-27T12:30:02.223Z,6.80
2018-01-27T12:31:02.158Z,6.80
2018-01-27T12:32:02.145Z,6.83
2018-01-27T12:33:02.030Z,6.89
2018-01-27T12:34:01.966Z,6.79
2018-01-27T12:35:01.901Z,6.87
2018-01-27T12:36:01.837Z,6.99
2018-01-27T12:37:01.773Z,6.91
2018-01-27T12:38:01.709Z,6.91
2018-01-27T12:39:01.644Z,6.81
2018-01-27T12:40:01.580Z,6.90
2018-01-27T12:41:01.516Z,6.87
2018-01-27T12:42:01.453Z,6.89
2018-01-27T12:43:01.387Z,6.89
2018-01-27T12:44:01.323Z,6.99
2018-01-27T12:45:01.261Z,6.95
2018-01-27T12:46:01.196Z,6.90
2018-01-27T12:47:01.132Z,6.91
2018-01-27T12:48:01.066Z,6.79
2018-01-27T12:49:01.005Z,6.79
2018-01-27T12:50:00.939Z,6.63
2018-01-27T12:51:00.875Z,6.76
2018-01-27T12:52:00.810Z,6.65
2018-01-27T12:53:00.747Z,6.68
2018-01-27T12:54:00.683Z,6.68
2018-01-27T12:55:00.618Z,6.77
2018-01-27T12:56:00.553Z,6.66
2018-01-27T12:57:00.490Z,6.68
2018-01-27T12:58:00.427Z,6.68
2018-01-27T12:59:00.362Z,6.66
2018-01-27T13:00:00.296Z,6.77
2018-01-27T13:01:00.233Z,6.69
2018-01-27T13:02:00.170Z,6.62
2018-01-27T13:03:00.104Z,6.69
2018-01-27T13:04:00.042Z,6.62
2018-01-27T13:04:59.977Z,6.65
2018-01-27T13:05:59.913Z,6.65
2018-01-27T13:06:59.847Z,6.62
2018-01-27T13:07:59.784Z,6.66
2018-01-27T13:08:59.720Z,6.71
2018-01-27T13:09:59.656Z,6.77
2018-01-27T13:10:59.590Z,6.71
2018-01-27T13:11:59.530Z,6.71
2018-01-27T13:12:59.463Z,6.62
2018-01-27T13:13:59.399Z,6.69
2018-01-27T13:14:59.335Z,6.81
2018-01-27T13:15:59.270Z,6.66
2018-01-27T13:16:59.206Z,6.63
2018-01-27T13:17:59.142Z,6.59